Time;durP1;ratioP1;P1;durP2;ratioP2;P2;SDS_P1;SDS_P2;PMS_P1;PMS_P2;Temp;Humidity;BMP_temperature;BMP_pressure;BME280_temperature;BME280_humidity;BME280_pressure;Samples;Min_cycle;Max_cycle;Signal;HPM_P1;HPM_P2
2022/06/07 00:02:06;;;;;;;3.92;3.03;;;20.50;61.80;;;;;;5032421;28;20029;-58
2022/06/07 00:04:32;;;;;;;3.42;2.75;;;20.60;62.00;;;;;;5032744;28;20771;-58
2022/06/07 00:06:58;;;;;;;2.88;2.58;;;20.50;62.10;;;;;;5031129;28;20040;-58
2022/06/07 00:09:24;;;;;;;2.88;2.58;;;20.50;62.20;;;;;;5032692;28;20022;-59
2022/06/07 00:11:49;;;;;;;3.85;3.00;;;20.40;62.50;;;;;;5032308;28;20022;-58
2022/06/07 00:14:15;;;;;;;3.58;2.40;;;20.40;62.60;;;;;;5032176;28;20029;-58
2022/06/07 00:16:42;;;;;;;3.78;2.50;;;20.40;62.70;;;;;;5028076;28;20086;-58
2022/06/07 00:19:07;;;;;;;3.17;2.72;;;20.30;62.80;;;;;;5032069;28;20025;-58
2022/06/07 00:21:33;;;;;;;2.95;2.63;;;20.30;63.00;;;;;;5031876;28;20018;-58
2022/06/07 00:24:00;;;;;;;2.55;2.10;;;20.30;63.20;;;;;;5032334;28;20029;-58
2022/06/07 00:26:27;;;;;;;2.83;2.45;;;20.20;63.20;;;;;;5031949;28;20021;-58
2022/06/07 00:28:53;;;;;;;3.92;2.65;;;20.20;63.50;;;;;;5031942;28;20100;-58
2022/06/07 00:31:19;;;;;;;3.13;2.53;;;20.20;62.90;;;;;;5032387;28;20025;-59
2022/06/07 00:33:45;;;;;;;3.30;2.63;;;20.20;63.10;;;;;;5027019;28;20030;-59
2022/06/07 00:36:11;;;;;;;3.58;2.58;;;20.10;62.80;;;;;;5032217;28;20428;-58
2022/06/07 00:38:37;;;;;;;2.47;2.28;;;20.10;62.70;;;;;;5032271;28;20017;-58
2022/06/07 00:41:03;;;;;;;3.70;2.97;;;20.10;62.80;;;;;;5030386;28;20056;-59
2022/06/07 00:43:30;;;;;;;2.97;2.65;;;20.10;62.80;;;;;;5031450;28;20036;-59
2022/06/07 00:45:57;;;;;;;3.30;2.60;;;20.10;62.70;;;;;;5031982;28;20393;-59
2022/06/07 00:48:23;;;;;;;3.05;2.42;;;20.10;62.70;;;;;;5018262;28;20025;-59
2022/06/07 00:50:51;;;;;;;2.53;2.33;;;20.10;62.60;;;;;;5021458;28;20157;-58
2022/06/07 00:53:28;;;;;;;3.17;2.40;;;20.10;62.60;;;;;;5031648;28;20033;-58
2022/06/07 00:55:54;;;;;;;3.50;2.53;;;20.10;62.70;;;;;;5031402;28;20025;-58
2022/06/07 00:58:22;;;;;;;4.05;2.55;;;20.10;62.70;;;;;;5034833;28;20025;-58
2022/06/07 01:00:48;;;;;;;3.17;2.70;;;20.10;63.00;;;;;;5035500;28;20076;-58
2022/06/07 01:03:14;;;;;;;2.92;2.35;;;20.10;62.80;;;;;;5035691;28;20021;-59
2022/06/07 01:05:40;;;;;;;2.90;2.60;;;20.10;62.80;;;;;;5035765;28;20092;-58
2022/06/07 01:10:53;;;;;;;4.78;3.05;;;20.10;62.70;;;;;;5035501;28;20036;-58
2022/06/07 01:13:22;;;;;;;2.70;2.50;;;20.10;62.70;;;;;;5036335;28;20104;-58
2022/06/07 01:15:48;;;;;;;3.10;2.80;;;20.10;62.70;;;;;;5034854;28;20022;-58
2022/06/07 01:18:16;;;;;;;2.88;2.58;;;20.10;62.90;;;;;;5035227;28;20028;-59
2022/06/07 01:20:41;;;;;;;2.85;2.55;;;20.10;63.00;;;;;;5035242;28;20040;-58
2022/06/07 01:23:08;;;;;;;2.67;2.45;;;20.00;62.90;;;;;;5034067;28;20025;-58
2022/06/07 01:25:35;;;;;;;2.95;2.53;;;20.00;63.00;;;;;;5032985;28;20474;-58
2022/06/07 01:28:01;;;;;;;2.55;2.35;;;20.00;62.90;;;;;;5035510;28;20112;-58
2022/06/07 01:30:27;;;;;;;2.83;2.47;;;20.00;63.00;;;;;;5034368;28;20104;-58
2022/06/07 01:32:52;;;;;;;2.83;2.47;;;20.00;63.00;;;;;;5035023;28;20048;-58
2022/06/07 01:35:18;;;;;;;3.67;2.83;;;20.00;63.10;;;;;;5035022;28;20109;-58
2022/06/07 01:37:44;;;;;;;4.03;2.78;;;20.00;63.20;;;;;;5035065;28;20025;-58
2022/06/07 01:42:55;;;;;;;3.53;2.70;;;20.00;63.10;;;;;;5028182;28;20388;-58
2022/06/07 01:45:21;;;;;;;3.33;2.40;;;20.00;63.20;;;;;;5034751;28;20104;-58
2022/06/07 01:47:47;;;;;;;2.70;2.50;;;20.00;63.30;;;;;;5033228;28;20030;-58
2022/06/07 01:50:13;;;;;;;2.63;2.40;;;20.00;63.40;;;;;;5034026;28;20055;-58
2022/06/07 01:52:39;;;;;;;4.38;2.70;;;20.00;63.50;;;;;;5034710;28;20075;-59
2022/06/07 01:55:06;;;;;;;2.88;2.30;;;20.00;63.50;;;;;;5034287;28;20151;-59
2022/06/07 01:57:32;;;;;;;3.88;2.67;;;20.00;63.60;;;;;;5030463;28;20490;-59
2022/06/07 01:59:59;;;;;;;3.00;2.40;;;20.00;63.60;;;;;;5033009;28;20089;-59
2022/06/07 02:02:27;;;;;;;4.15;2.95;;;20.00;63.60;;;;;;5034654;28;20083;-58
2022/06/07 02:04:52;;;;;;;2.50;2.30;;;20.00;63.60;;;;;;5034502;28;20041;-58
2022/06/07 02:07:19;;;;;;;2.58;2.38;;;20.00;63.60;;;;;;5034398;28;20079;-58
2022/06/07 02:09:45;;;;;;;2.95;2.40;;;19.90;63.60;;;;;;5034218;28;20481;-59
2022/06/07 02:12:10;;;;;;;2.70;2.50;;;20.00;63.70;;;;;;5033977;28;20029;-58
2022/06/07 02:14:38;;;;;;;2.85;2.58;;;20.00;64.00;;;;;;5030983;28;20120;-58
2022/06/07 02:17:04;;;;;;;2.80;2.40;;;20.00;63.90;;;;;;5034122;28;20022;-58
2022/06/07 02:19:30;;;;;;;2.70;2.50;;;20.00;63.90;;;;;;5034002;28;20400;-58
2022/06/07 02:21:56;;;;;;;4.00;3.00;;;20.00;64.10;;;;;;5034277;28;20105;-59
2022/06/07 02:24:21;;;;;;;3.22;2.72;;;20.10;64.20;;;;;;5033808;28;20075;-59
2022/06/07 02:27:02;;;;;;;2.90;2.50;;;20.10;64.30;;;;;;5033634;28;20091;-59
2022/06/07 02:29:33;;;;;;;2.70;2.50;;;20.10;64.30;;;;;;5033731;28;20436;-59
2022/06/07 02:32:05;;;;;;;2.45;2.25;;;20.10;64.30;;;;;;5026446;28;20032;-58
2022/06/07 02:34:32;;;;;;;2.75;2.55;;;20.10;64.60;;;;;;5030283;28;20045;-59
2022/06/07 02:37:01;;;;;;;4.72;2.72;;;20.20;64.60;;;;;;5033571;28;20017;-58
2022/06/07 02:39:29;;;;;;;3.05;2.63;;;20.20;64.80;;;;;;5033700;28;20439;-59
2022/06/07 02:41:57;;;;;;;3.20;2.65;;;20.20;65.00;;;;;;5033698;28;20180;-59
2022/06/07 02:44:22;;;;;;;2.72;2.53;;;20.30;65.10;;;;;;5033755;28;20017;-58
2022/06/07 02:46:48;;;;;;;3.00;2.70;;;20.30;65.30;;;;;;5027979;28;20163;-58
2022/06/07 02:49:14;;;;;;;2.47;2.28;;;20.30;65.50;;;;;;5030608;28;20032;-58
2022/06/07 02:51:39;;;;;;;2.95;2.65;;;20.40;65.60;;;;;;5033950;28;20100;-59
2022/06/07 02:54:05;;;;;;;2.72;2.38;;;20.40;65.60;;;;;;5032294;28;20056;-58
2022/06/07 02:56:30;;;;;;;3.50;2.50;;;20.40;65.70;;;;;;5033669;28;20080;-58
2022/06/07 02:58:56;;;;;;;3.13;2.60;;;20.50;65.70;;;;;;5032643;28;20025;-59
2022/06/07 03:01:22;;;;;;;2.50;2.30;;;20.50;65.70;;;;;;5031340;28;20053;-58
2022/06/07 03:03:47;;;;;;;3.22;2.92;;;20.50;65.80;;;;;;5033674;28;20026;-59
2022/06/07 03:06:13;;;;;;;3.38;2.40;;;20.60;65.80;;;;;;5031364;28;20021;-58
2022/06/07 03:08:39;;;;;;;2.80;2.40;;;20.60;65.90;;;;;;5033279;28;20016;-59
2022/06/07 03:11:05;;;;;;;3.83;2.60;;;20.60;65.70;;;;;;5033265;28;20025;-58
2022/06/07 03:13:31;;;;;;;3.90;2.55;;;20.70;65.70;;;;;;5035816;28;20405;-59
2022/06/07 03:15:57;;;;;;;2.80;2.50;;;20.70;66.30;;;;;;5034671;28;20029;-57
2022/06/07 03:18:22;;;;;;;3.30;2.85;;;20.70;65.40;;;;;;5033134;28;20040;-58
2022/06/07 03:20:51;;;;;;;3.58;2.80;;;20.80;65.50;;;;;;5031270;28;20029;-59
2022/06/07 03:23:17;;;;;;;3.22;2.90;;;20.80;65.80;;;;;;5032094;28;20034;-59
2022/06/07 03:25:43;;;;;;;4.18;2.88;;;20.90;66.20;;;;;;5032769;28;20393;-58
2022/06/07 03:28:09;;;;;;;3.88;3.08;;;20.90;66.40;;;;;;5033024;28;20036;-57
2022/06/07 03:30:35;;;;;;;3.50;2.67;;;21.00;66.80;;;;;;5032902;28;20119;-58
2022/06/07 03:33:01;;;;;;;3.92;2.70;;;21.20;67.60;;;;;;5032735;28;20022;-59
2022/06/07 03:35:27;;;;;;;2.85;2.33;;;21.60;68.20;;;;;;5032968;28;20032;-58
2022/06/07 03:37:53;;;;;;;2.70;2.50;;;22.00;67.70;;;;;;5033020;28;20377;-58
2022/06/07 03:40:42;;;;;;;4.13;2.90;;;22.60;67.00;;;;;;5030654;28;20021;-58
2022/06/07 03:43:05;;;;;;;3.03;2.58;;;23.20;66.50;;;;;;5032458;28;20041;-58
2022/06/07 03:45:31;;;;;;;2.85;2.53;;;24.20;65.70;;;;;;5026853;28;20030;-58
2022/06/07 03:47:57;;;;;;;2.83;2.45;;;25.20;64.20;;;;;;5027759;28;20042;-59
2022/06/07 03:50:23;;;;;;;2.55;2.25;;;26.40;62.60;;;;;;5031369;28;20025;-59
2022/06/07 03:52:49;;;;;;;2.38;2.17;;;27.50;60.40;;;;;;5032644;28;20028;-59
2022/06/07 03:55:15;;;;;;;3.50;2.15;;;28.60;58.40;;;;;;5031680;28;20076;-59
2022/06/07 03:57:40;;;;;;;2.30;2.10;;;29.70;56.70;;;;;;5026433;28;20021;-59
2022/06/07 04:00:07;;;;;;;2.17;1.77;;;30.70;55.20;;;;;;5032440;28;20029;-59
2022/06/07 04:02:34;;;;;;;2.20;2.00;;;31.70;53.80;;;;;;5032528;28;20179;-59
2022/06/07 04:04:59;;;;;;;5.28;1.90;;;32.60;52.20;;;;;;5032665;28;20385;-59
2022/06/07 04:10:10;;;;;;;1.90;1.80;;;34.30;50.00;;;;;;5032485;28;20032;-58
2022/06/07 04:12:35;;;;;;;3.17;1.92;;;35.10;48.90;;;;;;5032396;28;20022;-58
2022/06/07 04:15:01;;;;;;;1.98;1.63;;;35.80;47.80;;;;;;5030394;28;20029;-57
2022/06/07 04:17:27;;;;;;;1.77;1.67;;;36.50;47.00;;;;;;5032111;28;20018;-57
2022/06/07 04:19:53;;;;;;;2.22;2.03;;;37.10;46.00;;;;;;5031958;28;20366;-57
2022/06/07 04:22:19;;;;;;;1.50;1.40;;;37.70;45.40;;;;;;5032075;28;20596;-57
2022/06/07 04:24:44;;;;;;;2.15;1.35;;;38.20;44.70;;;;;;5032152;28;20079;-57
2022/06/07 04:27:10;;;;;;;1.50;1.40;;;38.70;44.00;;;;;;5032247;28;20096;-57
2022/06/07 04:29:36;;;;;;;1.60;1.50;;;39.10;43.30;;;;;;5031760;28;20021;-57
2022/06/07 04:32:01;;;;;;;2.13;1.70;;;39.60;42.90;;;;;;5026017;28;20471;-57
2022/06/07 04:34:28;;;;;;;1.65;1.55;;;39.90;42.30;;;;;;5035334;28;20051;-57
2022/06/07 04:36:54;;;;;;;1.67;1.58;;;40.20;41.90;;;;;;5035823;28;20110;-57
2022/06/07 04:39:19;;;;;;;1.45;1.35;;;40.50;41.30;;;;;;5035857;28;20105;-57
2022/06/07 04:41:45;;;;;;;2.00;1.73;;;40.90;40.90;;;;;;5035533;28;20045;-57
2022/06/07 04:44:11;;;;;;;2.03;1.83;;;41.10;40.60;;;;;;5027957;28;20021;-59
2022/06/07 04:46:37;;;;;;;1.40;1.30;;;41.30;40.20;;;;;;5032735;28;20026;-59
2022/06/07 04:49:03;;;;;;;1.98;1.73;;;41.50;39.90;;;;;;5028583;28;20032;-59
2022/06/07 04:51:31;;;;;;;1.42;1.33;;;41.70;39.50;;;;;;5035867;28;20017;-59
2022/06/07 04:54:00;;;;;;;1.77;1.67;;;41.80;39.10;;;;;;5033948;28;20022;-58
2022/06/07 04:56:28;;;;;;;2.25;1.45;;;41.90;38.90;;;;;;5035602;28;20536;-59
2022/06/07 04:58:55;;;;;;;1.48;1.38;;;42.10;38.90;;;;;;5035654;28;20013;-59
2022/06/07 05:01:33;;;;;;;1.50;1.40;;;42.20;38.80;;;;;;5035542;28;20036;-58
2022/06/07 05:03:59;;;;;;;1.60;1.50;;;42.40;38.40;;;;;;5034511;28;20104;-59
2022/06/07 05:06:30;;;;;;;2.78;1.60;;;42.50;38.30;;;;;;5033583;28;20694;-59
2022/06/07 05:08:59;;;;;;;1.67;1.58;;;42.60;38.10;;;;;;5035361;28;20033;-59
2022/06/07 05:11:26;;;;;;;1.48;1.38;;;42.70;37.80;;;;;;5035572;28;20496;-59
2022/06/07 05:13:59;;;;;;;1.42;1.35;;;42.70;37.70;;;;;;5035417;28;20022;-58
2022/06/07 05:16:25;;;;;;;1.58;1.48;;;42.80;37.50;;;;;;5031136;28;20029;-59
2022/06/07 05:18:53;;;;;;;1.40;1.13;;;42.70;36.90;;;;;;5028496;28;20033;-59
2022/06/07 05:21:19;;;;;;;1.73;1.50;;;42.60;36.50;;;;;;5022276;28;20034;-58
2022/06/07 05:23:45;;;;;;;1.55;1.45;;;42.30;36.30;;;;;;5024977;28;20388;-58
2022/06/07 05:26:17;;;;;;;1.50;1.40;;;41.50;36.30;;;;;;5034572;28;20100;-59
2022/06/07 05:28:44;;;;;;;1.92;1.75;;;40.70;36.50;;;;;;5027494;28;20071;-58
2022/06/07 05:31:10;;;;;;;2.35;1.95;;;39.60;36.90;;;;;;5035960;28;20136;-58
2022/06/07 05:33:36;;;;;;;1.65;1.55;;;38.60;37.50;;;;;;5039901;28;20167;-59
2022/06/07 05:36:03;;;;;;;1.80;1.70;;;37.60;38.20;;;;;;5032853;28;20017;-58
2022/06/07 05:38:29;;;;;;;1.80;1.70;;;36.60;38.80;;;;;;5035691;28;20367;-58
2022/06/07 05:40:55;;;;;;;1.88;1.70;;;35.70;39.50;;;;;;5037605;28;20456;-58
2022/06/07 05:43:21;;;;;;;1.80;1.70;;;34.90;40.20;;;;;;5024995;28;20030;-58
2022/06/07 05:45:52;;;;;;;2.47;1.65;;;34.20;40.80;;;;;;5024732;28;20033;-58
2022/06/07 05:48:18;;;;;;;2.05;1.83;;;33.50;41.40;;;;;;5024379;28;20037;-57
2022/06/07 05:50:44;;;;;;;1.88;1.73;;;32.80;41.80;;;;;;5032176;28;20060;-58
2022/06/07 05:53:11;;;;;;;1.77;1.67;;;32.30;42.50;;;;;;5032827;28;20021;-58
2022/06/07 05:55:37;;;;;;;1.70;1.60;;;31.80;42.90;;;;;;5023815;28;20052;-58
2022/06/07 05:58:03;;;;;;;1.77;1.67;;;31.40;44.00;;;;;;5021816;28;20079;-58
2022/06/07 06:00:30;;;;;;;1.70;1.60;;;31.00;43.90;;;;;;5021505;28;20044;-58
2022/06/07 06:02:56;;;;;;;1.90;1.75;;;30.60;44.30;;;;;;5022042;28;20075;-61
2022/06/07 06:05:22;;;;;;;1.80;1.70;;;30.30;44.90;;;;;;5024747;28;20139;-59
2022/06/07 06:10:31;;;;;;;1.67;1.58;;;29.80;45.70;;;;;;5016270;28;20037;-58
2022/06/07 06:12:57;;;;;;;2.15;1.58;;;29.50;46.00;;;;;;5009080;28;20412;-58
2022/06/07 06:15:23;;;;;;;1.55;1.45;;;29.30;46.30;;;;;;5008132;28;20032;-59
2022/06/07 06:17:48;;;;;;;1.98;1.52;;;29.00;46.60;;;;;;5014821;28;20033;-58
2022/06/07 06:20:14;;;;;;;2.10;1.90;;;28.90;46.80;;;;;;5021370;28;20095;-57
2022/06/07 06:22:40;;;;;;;1.73;1.63;;;28.70;47.10;;;;;;5023351;28;20485;-58
2022/06/07 06:25:08;;;;;;;1.80;1.70;;;28.50;47.30;;;;;;5031315;28;20037;-59
2022/06/07 06:27:35;;;;;;;2.33;1.60;;;28.40;47.60;;;;;;5024138;28;20060;-58
2022/06/07 06:30:01;;;;;;;1.80;1.70;;;28.20;47.70;;;;;;5017151;28;20396;-57
2022/06/07 06:32:27;;;;;;;1.98;1.88;;;28.00;48.00;;;;;;5015348;28;20030;-59
2022/06/07 06:34:52;;;;;;;1.33;1.23;;;27.90;48.30;;;;;;5025702;28;20107;-57
2022/06/07 06:37:18;;;;;;;1.80;1.70;;;27.70;48.40;;;;;;5016281;28;20048;-58
2022/06/07 06:39:44;;;;;;;1.60;1.50;;;27.60;48.80;;;;;;5013967;28;20048;-58
2022/06/07 06:42:10;;;;;;;1.95;1.80;;;27.50;49.00;;;;;;5020712;28;20104;-57
2022/06/07 06:44:36;;;;;;;1.77;1.67;;;27.40;49.30;;;;;;5015525;28;20038;-59
2022/06/07 06:47:02;;;;;;;2.35;2.25;;;27.30;49.60;;;;;;5016858;28;20026;-58
2022/06/07 06:49:28;;;;;;;1.60;1.50;;;27.20;49.90;;;;;;5017403;28;20038;-57
2022/06/07 06:51:55;;;;;;;1.67;1.58;;;27.10;50.20;;;;;;5014562;28;20033;-58
2022/06/07 06:54:23;;;;;;;2.38;1.70;;;27.00;50.30;;;;;;5008080;28;20061;-58
2022/06/07 06:56:49;;;;;;;1.63;1.52;;;26.90;50.50;;;;;;5009196;28;20037;-58
2022/06/07 06:59:16;;;;;;;1.90;1.73;;;26.90;50.80;;;;;;5012622;28;20047;-57
2022/06/07 07:01:42;;;;;;;2.40;1.95;;;26.80;51.00;;;;;;5009540;28;20547;-58
2022/06/07 07:04:15;;;;;;;1.83;1.73;;;26.70;51.10;;;;;;5010252;28;20030;-55
2022/06/07 07:06:41;;;;;;;1.73;1.60;;;26.60;51.40;;;;;;5002872;28;20029;-59
2022/06/07 07:09:08;;;;;;;1.70;1.60;;;26.50;51.60;;;;;;4998516;28;20046;-59
2022/06/07 07:11:46;;;;;;;1.88;1.77;;;26.40;51.90;;;;;;4993097;28;20410;-57
2022/06/07 07:14:13;;;;;;;1.75;1.65;;;26.40;52.00;;;;;;4995186;28;20029;-59
2022/06/07 07:16:41;;;;;;;2.58;1.90;;;26.30;52.20;;;;;;4996989;28;20035;-58
2022/06/07 07:19:08;;;;;;;1.95;1.80;;;26.30;52.50;;;;;;4997823;28;20041;-58
2022/06/07 07:21:37;;;;;;;2.00;1.85;;;26.30;52.50;;;;;;4998926;28;20110;-58
2022/06/07 07:24:05;;;;;;;1.63;1.52;;;26.20;52.60;;;;;;4999055;28;20033;-59
2022/06/07 07:26:32;;;;;;;1.63;1.52;;;26.20;52.70;;;;;;4999739;28;20029;-58
2022/06/07 07:28:59;;;;;;;2.85;1.83;;;26.10;52.80;;;;;;5000323;28;20400;-58
2022/06/07 07:31:30;;;;;;;3.60;1.83;;;26.10;52.90;;;;;;4997073;28;20886;-58
2022/06/07 07:33:57;;;;;;;2.20;2.00;;;26.10;53.00;;;;;;5014472;28;20025;-58
2022/06/07 07:36:23;;;;;;;1.83;1.73;;;26.10;53.20;;;;;;4997388;28;20057;-58
2022/06/07 07:38:49;;;;;;;1.88;1.67;;;26.10;53.30;;;;;;5003237;28;20225;-58
2022/06/07 07:41:17;;;;;;;1.70;1.60;;;26.10;53.40;;;;;;4993107;28;20049;-58
2022/06/07 07:43:44;;;;;;;1.45;1.35;;;26.00;53.30;;;;;;4991767;28;20030;-58
2022/06/07 07:46:10;;;;;;;1.50;1.48;;;26.00;54.00;;;;;;5002712;28;20464;-58
2022/06/07 07:48:36;;;;;;;1.50;1.40;;;26.00;53.50;;;;;;5007015;28;20038;-58
2022/06/07 07:51:06;;;;;;;1.60;1.50;;;26.00;53.50;;;;;;5001587;28;20029;-58
2022/06/07 07:53:32;;;;;;;1.83;1.73;;;26.00;53.50;;;;;;5008444;28;20413;-57
2022/06/07 07:55:58;;;;;;;1.77;1.67;;;26.00;53.40;;;;;;4997213;28;20057;-58
2022/06/07 07:58:24;;;;;;;1.63;1.52;;;26.00;53.00;;;;;;4997388;28;21022;-57
2022/06/07 08:00:50;;;;;;;1.27;1.17;;;26.00;52.70;;;;;;4996925;28;20030;-56
2022/06/07 08:03:18;;;;;;;1.38;1.27;;;26.00;52.10;;;;;;4999124;28;20041;-58
2022/06/07 08:05:44;;;;;;;1.25;1.15;;;25.90;52.00;;;;;;5002921;28;20034;-57
2022/06/07 08:08:10;;;;;;;1.38;1.27;;;25.90;51.90;;;;;;5005652;28;20171;-57
2022/06/07 08:10:36;;;;;;;1.20;1.20;;;25.90;51.60;;;;;;5000784;28;20856;-57
2022/06/07 08:13:03;;;;;;;1.38;1.25;;;25.90;51.60;;;;;;4998992;28;20110;-58
2022/06/07 08:15:31;;;;;;;1.38;1.27;;;25.80;51.60;;;;;;5008524;28;20373;-57
2022/06/07 08:17:57;;;;;;;1.10;1.08;;;25.90;52.00;;;;;;5007994;28;20037;-57
2022/06/07 08:20:24;;;;;;;1.00;1.00;;;25.80;51.10;;;;;;5002231;28;20037;-58
2022/06/07 08:22:50;;;;;;;1.30;1.20;;;25.80;51.00;;;;;;4996707;28;20477;-58
2022/06/07 08:25:17;;;;;;;1.33;1.23;;;25.80;51.30;;;;;;4998043;28;20033;-58
2022/06/07 08:27:43;;;;;;;2.80;1.50;;;25.80;51.10;;;;;;5002275;28;20045;-57
2022/06/07 08:30:09;;;;;;;1.17;1.13;;;25.80;50.90;;;;;;5002310;28;20387;-57
2022/06/07 08:32:35;;;;;;;1.40;1.35;;;25.80;50.70;;;;;;4993321;28;20045;-57
2022/06/07 08:37:45;;;;;;;1.10;1.10;;;25.80;50.70;;;;;;5003485;28;20804;-58
2022/06/07 08:40:26;;;;;;;1.55;1.45;;;25.80;50.70;;;;;;4998821;28;20033;-57
2022/06/07 08:42:55;;;;;;;1.40;1.30;;;25.80;50.70;;;;;;5001342;28;20041;-58
2022/06/07 08:45:35;;;;;;;1.33;1.23;;;25.70;50.70;;;;;;4999123;28;20064;-56
2022/06/07 08:48:06;;;;;;;1.65;1.50;;;25.80;50.70;;;;;;4994923;28;20119;-58
2022/06/07 08:50:46;;;;;;;1.75;1.65;;;25.70;50.50;;;;;;4997645;28;20148;-58
2022/06/07 08:53:18;;;;;;;1.75;1.17;;;25.70;50.60;;;;;;4996153;28;20045;-59
2022/06/07 08:55:56;;;;;;;1.55;1.45;;;25.70;50.60;;;;;;4995794;28;20045;-59
2022/06/07 08:58:27;;;;;;;5.47;1.88;;;25.70;50.30;;;;;;5001211;28;20160;-60
2022/06/07 09:00:59;;;;;;;1.85;1.75;;;25.70;50.30;;;;;;4988985;28;20033;-59
2022/06/07 09:03:57;;;;;;;1.73;1.60;;;25.70;50.20;;;;;;5008802;28;20461;-59
2022/06/07 09:06:31;;;;;;;1.45;1.35;;;25.70;50.00;;;;;;4996450;28;20056;-58
2022/06/07 09:08:59;;;;;;;1.30;1.20;;;25.70;49.70;;;;;;4991400;28;20042;-58
2022/06/07 09:14:22;;;;;;;1.40;1.30;;;25.60;49.50;;;;;;5003073;28;23039;-58
2022/06/07 09:16:48;;;;;;;1.40;1.30;;;25.60;49.30;;;;;;5004414;28;20814;-59
2022/06/07 09:19:20;;;;;;;1.75;1.65;;;25.50;49.20;;;;;;5001695;28;20803;-57
2022/06/07 09:21:48;;;;;;;3.60;1.40;;;25.50;49.20;;;;;;4997596;28;20052;-58
2022/06/07 09:24:23;;;;;;;1.08;1.08;;;25.50;49.10;;;;;;5006501;28;21801;-58
2022/06/07 09:26:49;;;;;;;1.23;1.15;;;25.50;48.90;;;;;;4992452;28;20452;-58
2022/06/07 09:29:23;;;;;;;1.38;1.27;;;25.40;49.00;;;;;;4993410;28;20162;-59
2022/06/07 09:31:51;;;;;;;1.33;1.33;;;25.40;49.00;;;;;;4993439;28;20037;-59
2022/06/07 09:34:25;;;;;;;1.45;1.45;;;25.40;49.10;;;;;;4993250;28;20049;-58
2022/06/07 09:36:57;;;;;;;1.27;1.27;;;25.40;49.10;;;;;;4998809;28;20075;-58
2022/06/07 09:39:32;;;;;;;1.08;1.08;;;25.40;49.10;;;;;;4997173;28;20033;-58
2022/06/07 09:42:26;;;;;;;1.58;1.48;;;25.40;49.50;;;;;;5002559;28;20061;-58
2022/06/07 09:45:02;;;;;;;1.45;1.30;;;25.30;49.50;;;;;;4999113;28;20588;-59
2022/06/07 09:47:31;;;;;;;2.45;1.10;;;25.30;49.20;;;;;;4993792;28;20033;-58
2022/06/07 09:50:23;;;;;;;1.30;1.20;;;25.30;49.30;;;;;;5001695;28;20516;-59
2022/06/07 09:53:06;;;;;;;1.50;1.20;;;25.30;49.80;;;;;;4989094;28;20116;-58
2022/06/07 09:55:43;;;;;;;1.48;1.40;;;25.20;49.10;;;;;;4994053;28;21011;-58
2022/06/07 09:58:14;;;;;;;1.58;1.40;;;25.20;49.40;;;;;;4990602;28;20646;-59
2022/06/07 10:00:48;;;;;;;1.17;1.15;;;25.20;49.00;;;;;;5001825;28;20034;-58
2022/06/07 10:03:24;;;;;;;1.17;1.17;;;25.20;49.00;;;;;;5004108;28;20066;-58
2022/06/07 10:06:16;;;;;;;1.50;1.40;;;25.20;49.00;;;;;;4998601;28;20029;-57
2022/06/07 10:08:55;;;;;;;1.23;1.20;;;25.20;48.90;;;;;;5001471;28;20584;-57
2022/06/07 10:11:28;;;;;;;1.17;1.17;;;25.10;48.70;;;;;;5007414;28;20037;-58
2022/06/07 10:14:15;;;;;;;1.13;1.13;;;25.10;48.70;;;;;;4994562;28;20022;-59
2022/06/07 10:16:59;;;;;;;1.80;1.50;;;25.10;48.60;;;;;;4995511;28;20053;-59
2022/06/07 10:19:59;;;;;;;1.45;1.45;;;25.00;48.80;;;;;;4992050;28;20516;-59
2022/06/07 10:22:27;;;;;;;1.38;1.27;;;25.00;48.80;;;;;;5000950;28;20033;-58
2022/06/07 10:25:27;;;;;;;1.38;1.30;;;25.00;48.90;;;;;;4991821;28;20064;-58
2022/06/07 10:28:17;;;;;;;1.70;1.60;;;25.00;49.00;;;;;;5007037;28;21672;-58
2022/06/07 10:31:09;;;;;;;1.13;1.13;;;25.00;49.00;;;;;;5003814;28;20095;-58
2022/06/07 10:34:10;;;;;;;1.30;1.20;;;25.00;49.10;;;;;;5003020;28;20351;-58
2022/06/07 10:36:36;;;;;;;;;;;25.00;49.00;;;;;;4995724;28;20153;-58
2022/06/07 10:39:40;;;;;;;0.75;0.75;;;25.00;49.20;;;;;;4999250;28;20369;-59
2022/06/07 10:42:28;;;;;;;1.50;1.40;;;25.00;49.50;;;;;;5010090;28;20112;-60
2022/06/07 10:45:03;;;;;;;1.60;1.50;;;25.00;49.10;;;;;;5000540;28;20034;-59
2022/06/07 10:47:43;;;;;;;1.80;1.70;;;25.00;49.30;;;;;;5001325;28;20039;-59
2022/06/07 10:50:18;;;;;;;1.23;1.23;;;25.00;49.40;;;;;;5000808;28;20390;-59
2022/06/07 10:52:49;;;;;;;1.40;1.30;;;25.00;49.60;;;;;;5015971;28;20302;-59
2022/06/07 10:55:30;;;;;;;1.55;1.45;;;24.90;49.60;;;;;;5008491;28;20494;-58
2022/06/07 10:58:15;;;;;;;2.03;1.55;;;25.00;49.80;;;;;;5006310;28;20553;-58
2022/06/07 11:00:44;;;;;;;1.42;1.33;;;25.00;49.90;;;;;;5006062;28;20420;-59
2022/06/07 11:03:18;;;;;;;1.40;1.30;;;25.00;50.00;;;;;;5002836;28;20040;-58
2022/06/07 11:11:29;;;;;;;1.35;1.25;;;25.00;50.20;;;;;;4999329;28;20056;-58
2022/06/07 11:14:22;;;;;;;1.50;1.40;;;24.90;50.30;;;;;;4991612;28;20033;-59
2022/06/07 11:17:00;;;;;;;1.70;1.60;;;24.90;50.40;;;;;;4995989;28;20025;-57
2022/06/07 11:19:26;;;;;;;1.05;1.02;;;24.90;50.80;;;;;;5003261;28;20044;-58
2022/06/07 11:21:57;;;;;;;1.40;1.30;;;24.90;50.80;;;;;;4994890;28;20037;-57
2022/06/07 11:24:29;;;;;;;1.48;1.30;;;24.90;50.70;;;;;;4999620;28;20487;-57
2022/06/07 11:26:54;;;;;;;1.40;1.30;;;24.90;50.50;;;;;;5000102;28;20068;-57
2022/06/07 11:29:23;;;;;;;2.53;2.33;;;24.90;50.50;;;;;;4995633;28;20471;-58
2022/06/07 11:31:49;;;;;;;1.50;1.38;;;24.90;50.40;;;;;;5001143;28;20029;-57
2022/06/07 11:34:34;;;;;;;2.22;1.73;;;24.90;50.40;;;;;;4998107;28;20120;-58
2022/06/07 11:37:09;;;;;;;2.05;1.88;;;24.90;50.30;;;;;;4993862;28;20080;-58
2022/06/07 11:39:40;;;;;;;1.63;1.52;;;24.90;50.20;;;;;;4999657;28;20075;-58
2022/06/07 11:42:20;;;;;;;1.80;1.50;;;24.90;50.20;;;;;;5001011;28;20049;-58
2022/06/07 11:45:25;;;;;;;1.60;1.50;;;24.90;50.20;;;;;;4999154;28;20293;-57
2022/06/07 11:47:59;;;;;;;1.85;1.63;;;24.90;50.60;;;;;;4994949;28;20037;-58
2022/06/07 11:50:31;;;;;;;1.70;1.60;;;24.90;50.80;;;;;;5001084;28;20091;-57
2022/06/07 11:53:23;;;;;;;1.45;1.35;;;24.90;51.10;;;;;;5002650;28;20452;-57
2022/06/07 11:55:56;;;;;;;1.70;1.42;;;24.90;50.70;;;;;;4995563;28;20669;-57
2022/06/07 11:59:13;;;;;;;1.35;1.25;;;24.80;50.70;;;;;;4995887;28;20804;-58
2022/06/07 12:01:44;;;;;;;1.17;1.17;;;24.90;50.90;;;;;;4998513;28;21121;-58
2022/06/07 12:04:31;;;;;;;1.10;1.10;;;24.80;51.30;;;;;;4993156;28;20037;-59
2022/06/07 12:07:00;;;;;;;1.13;1.13;;;24.80;51.40;;;;;;4993968;28;20193;-58
2022/06/07 12:09:28;;;;;;;1.63;1.52;;;24.80;51.30;;;;;;4980795;28;20037;-59
2022/06/07 12:11:54;;;;;;;1.55;1.45;;;24.80;51.50;;;;;;4993694;28;20393;-58
2022/06/07 12:14:42;;;;;;;1.48;1.40;;;24.80;51.40;;;;;;4994639;28;20034;-58
2022/06/07 12:17:29;;;;;;;1.60;1.50;;;24.80;51.50;;;;;;4993285;28;20088;-59
2022/06/07 12:19:56;;;;;;;1.42;1.33;;;24.80;51.10;;;;;;4991300;28;20128;-59
2022/06/07 12:22:24;;;;;;;1.20;1.20;;;24.80;51.10;;;;;;4984448;28;20115;-59
2022/06/07 12:24:57;;;;;;;1.50;1.40;;;24.80;51.20;;;;;;4981706;28;20116;-59
2022/06/07 12:27:44;;;;;;;1.58;1.48;;;24.80;51.30;;;;;;4977889;28;20117;-58
2022/06/07 12:30:19;;;;;;;1.27;1.17;;;24.80;51.20;;;;;;4994240;28;20112;-58
2022/06/07 12:32:45;;;;;;;1.15;1.15;;;24.80;51.10;;;;;;4996004;28;20033;-57
2022/06/07 12:35:20;;;;;;;1.50;1.40;;;24.80;50.90;;;;;;4985981;28;20804;-58
2022/06/07 12:37:56;;;;;;;1.15;1.15;;;24.80;50.90;;;;;;4995380;28;20064;-58
2022/06/07 12:40:45;;;;;;;1.48;1.38;;;24.80;50.60;;;;;;4998753;28;20123;-57
2022/06/07 12:43:27;;;;;;;1.77;1.48;;;24.80;51.00;;;;;;4991992;28;20041;-58
2022/06/07 12:46:16;;;;;;;1.25;1.23;;;24.80;51.30;;;;;;4989070;28;20030;-57
2022/06/07 12:48:42;;;;;;;1.50;1.40;;;24.80;51.60;;;;;;5003218;28;21151;-57
2022/06/07 12:51:35;;;;;;;1.50;1.40;;;24.80;51.70;;;;;;5001890;28;20038;-59
2022/06/07 12:54:22;;;;;;;1.00;1.00;;;24.80;52.30;;;;;;5006010;28;20508;-59
2022/06/07 12:56:50;;;;;;;1.60;1.50;;;24.70;52.00;;;;;;5014637;28;20117;-57
2022/06/07 12:59:38;;;;;;;1.67;1.52;;;24.70;52.50;;;;;;5005262;28;22361;-57
2022/06/07 13:02:33;;;;;;;1.42;1.40;;;24.70;52.90;;;;;;4996185;28;20032;-57
2022/06/07 13:05:05;;;;;;;2.05;1.55;;;24.70;52.80;;;;;;5005997;28;20448;-58
2022/06/07 13:07:38;;;;;;;1.70;1.60;;;24.70;52.60;;;;;;4991170;28;21681;-58
2022/06/07 13:10:06;;;;;;;1.42;1.30;;;24.70;52.40;;;;;;4997527;28;20753;-58
2022/06/07 13:12:35;;;;;;;1.25;1.25;;;24.70;52.20;;;;;;4994259;28;20083;-58
2022/06/07 13:15:05;;;;;;;1.58;1.48;;;24.70;52.20;;;;;;4991473;28;20041;-57
2022/06/07 13:17:34;;;;;;;2.20;1.80;;;24.70;52.30;;;;;;4998829;28;20036;-57
2022/06/07 13:20:02;;;;;;;2.90;2.55;;;24.70;52.50;;;;;;4994611;28;20080;-58
2022/06/07 13:22:32;;;;;;;4.88;1.92;;;24.70;52.80;;;;;;4988517;28;20061;-57
2022/06/07 13:25:27;;;;;;;2.28;2.08;;;24.70;52.50;;;;;;4996308;28;20032;-58
2022/06/07 13:28:17;;;;;;;1.63;1.52;;;24.70;52.60;;;;;;5006225;28;20096;-60